Time;durP1;ratioP1;P1;durP2;ratioP2;P2;SDS_P1;SDS_P2;PMS_P1;PMS_P2;Temp;Humidity;BMP_temperature;BMP_pressure;BME280_temperature;BME280_humidity;BME280_pressure;Samples;Min_cycle;Max_cycle;Signal;HPM_P1;HPM_P2
2022/12/23 00:01:17;;;;;;;96.60;37.53;;;7.00;99.90;;;;;;5018785;28;20053;-65
2022/12/23 00:03:43;;;;;;;120.55;39.42;;;7.00;99.90;;;;;;5034373;28;20041;-65
2022/12/23 00:06:14;;;;;;;93.80;35.38;;;7.00;99.90;;;;;;5008603;28;20052;-65
2022/12/23 00:08:40;;;;;;;84.13;34.45;;;6.90;99.90;;;;;;5014076;28;20041;-65
2022/12/23 00:11:18;;;;;;;88.65;34.38;;;6.90;99.90;;;;;;5012497;28;20396;-65
2022/12/23 00:16:30;;;;;;;102.55;37.42;;;6.90;99.90;;;;;;5014983;28;20049;-65
2022/12/23 00:18:55;;;;;;;100.95;36.03;;;6.90;99.90;;;;;;5019961;28;20049;-65
2022/12/23 00:21:21;;;;;;;84.35;34.83;;;6.90;99.90;;;;;;5010686;28;20056;-65
2022/12/23 00:23:49;;;;;;;74.05;32.15;;;6.90;99.90;;;;;;5033135;28;20495;-65
2022/12/23 00:26:21;;;;;;;80.97;33.92;;;6.90;99.90;;;;;;5018298;28;20041;-65
2022/12/23 00:28:48;;;;;;;74.25;32.22;;;6.90;99.90;;;;;;5018955;28;20583;-65
2022/12/23 00:31:19;;;;;;;87.63;35.50;;;6.90;99.90;;;;;;5012693;28;20048;-65
2022/12/23 00:33:47;;;;;;;92.75;36.30;;;6.90;99.90;;;;;;5015678;28;20072;-65
2022/12/23 00:36:21;;;;;;;88.53;36.33;;;6.90;99.90;;;;;;5009987;28;20140;-64
2022/12/23 00:44:16;;;;;;;98.32;36.88;;;6.90;99.90;;;;;;5015352;28;20033;-65
2022/12/23 00:46:42;;;;;;;81.97;34.80;;;6.80;99.90;;;;;;5009287;28;20333;-65
2022/12/23 00:51:54;;;;;;;89.57;36.70;;;6.80;99.90;;;;;;5015170;28;20079;-65
2022/12/23 00:54:20;;;;;;;93.72;35.72;;;6.80;99.90;;;;;;4998540;28;20755;-65
2022/12/23 00:56:46;;;;;;;97.93;37.95;;;6.80;99.90;;;;;;5000767;28;20051;-65
2022/12/23 00:59:12;;;;;;;90.65;36.65;;;6.80;99.90;;;;;;5009739;28;20055;-65
2022/12/23 01:07:07;;;;;;;97.18;38.08;;;6.80;99.90;;;;;;5002000;28;20052;-65
2022/12/23 01:09:33;;;;;;;90.75;38.00;;;6.80;99.90;;;;;;5036834;28;20119;-65
2022/12/23 01:11:59;;;;;;;73.63;33.50;;;6.80;99.90;;;;;;5015146;28;20135;-65
2022/12/23 01:14:25;;;;;;;84.90;36.40;;;6.80;99.90;;;;;;5014050;28;20148;-65
2022/12/23 01:16:51;;;;;;;73.30;34.03;;;6.80;99.90;;;;;;4981953;28;20506;-65
2022/12/23 01:19:17;;;;;;;75.53;33.70;;;6.90;99.90;;;;;;5018551;28;20507;-65
2022/12/23 01:21:43;;;;;;;78.50;33.50;;;6.80;99.90;;;;;;5020730;28;20387;-65
2022/12/23 01:24:09;;;;;;;73.30;32.33;;;6.70;99.90;;;;;;5018290;28;20060;-65
2022/12/23 01:26:35;;;;;;;89.15;35.33;;;6.80;99.90;;;;;;5014752;28;20094;-65
2022/12/23 01:29:01;;;;;;;90.25;35.95;;;6.70;99.90;;;;;;5002757;28;20164;-65
2022/12/23 01:31:28;;;;;;;95.50;35.95;;;6.80;99.90;;;;;;5035066;28;20052;-65
2022/12/23 01:33:53;;;;;;;118.38;39.67;;;6.80;99.90;;;;;;5033951;28;20586;-65
2022/12/23 01:36:20;;;;;;;105.55;36.90;;;6.80;99.90;;;;;;4995134;28;20061;-65
2022/12/23 01:38:46;;;;;;;114.18;38.22;;;6.70;99.90;;;;;;5019239;28;21006;-65
2022/12/23 01:44:42;;;;;;;102.53;37.40;;;6.80;99.90;;;;;;5018166;28;20068;-65
2022/12/23 01:47:34;;;;;;;89.30;35.45;;;6.70;99.90;;;;;;5021413;28;20847;-65
2022/12/23 01:50:06;;;;;;;94.22;36.80;;;6.70;99.90;;;;;;5022607;28;20088;-65
2022/12/23 01:52:36;;;;;;;141.95;40.28;;;6.80;99.90;;;;;;5015538;28;20085;-65
2022/12/23 01:55:02;;;;;;;105.28;37.22;;;6.70;99.90;;;;;;5018701;28;20044;-65
2022/12/23 01:57:29;;;;;;;83.25;33.30;;;6.80;99.90;;;;;;5015694;28;20041;-65
2022/12/23 02:05:26;;;;;;;84.40;34.15;;;6.70;99.90;;;;;;5033712;28;20154;-65
2022/12/23 02:11:00;;;;;;;115.10;39.05;;;6.70;99.90;;;;;;5012456;28;20061;-65
2022/12/23 02:16:43;;;;;;;96.70;36.08;;;6.70;99.90;;;;;;5019066;28;20049;-65
2022/12/23 02:20:10;;;;;;;89.43;35.40;;;6.70;99.90;;;;;;5017716;28;20515;-65
2022/12/23 02:23:04;;;;;;;88.10;35.58;;;6.70;99.90;;;;;;4952252;28;20039;-65
2022/12/23 02:25:35;;;;;;;88.47;34.65;;;6.70;99.90;;;;;;4937817;28;20055;-65
2022/12/23 02:28:26;;;;;;;83.50;34.78;;;6.70;99.90;;;;;;4987769;28;20053;-65
2022/12/23 02:31:08;;;;;;;99.22;36.83;;;6.70;99.90;;;;;;5011499;28;20427;-65
2022/12/23 02:33:42;;;;;;;99.18;36.67;;;6.70;99.90;;;;;;5001619;28;20052;-65
2022/12/23 02:36:23;;;;;;;87.13;33.80;;;6.70;99.90;;;;;;5015281;28;20068;-65
2022/12/23 02:38:48;;;;;;;88.68;34.65;;;6.70;99.90;;;;;;5019050;28;20060;-65
2022/12/23 02:41:37;;;;;;;88.50;33.35;;;6.70;99.90;;;;;;5017263;28;20053;-65
2022/12/23 02:44:20;;;;;;;108.22;35.60;;;6.70;99.90;;;;;;5036370;28;20049;-65
2022/12/23 02:46:50;;;;;;;90.50;34.00;;;6.70;99.90;;;;;;5034622;28;21032;-65
2022/12/23 02:49:31;;;;;;;87.18;33.67;;;6.60;99.90;;;;;;5010019;28;20562;-65
2022/12/23 02:52:00;;;;;;;77.25;31.45;;;6.70;99.90;;;;;;5016834;28;20483;-65
2022/12/23 02:54:32;;;;;;;90.65;33.20;;;6.70;99.90;;;;;;5010025;28;20068;-65
2022/12/23 02:57:02;;;;;;;86.30;32.13;;;6.60;99.90;;;;;;5028586;28;20053;-65
2022/12/23 02:59:43;;;;;;;87.32;33.45;;;6.70;99.90;;;;;;5019923;28;20052;-65
2022/12/23 03:02:09;;;;;;;82.78;32.53;;;6.70;99.90;;;;;;5037287;28;20077;-65
2022/12/23 03:04:39;;;;;;;79.30;31.05;;;6.60;99.90;;;;;;4995426;28;20182;-65
2022/12/23 03:07:05;;;;;;;81.53;31.63;;;6.60;99.90;;;;;;5018675;28;20050;-65
2022/12/23 03:09:54;;;;;;;81.28;31.05;;;6.60;99.90;;;;;;5014426;28;20065;-65
2022/12/23 03:12:34;;;;;;;93.05;31.48;;;6.70;99.90;;;;;;5016158;28;20092;-65
2022/12/23 03:15:36;;;;;;;83.15;30.70;;;6.70;99.90;;;;;;5032613;28;20181;-65
2022/12/23 03:18:16;;;;;;;106.50;32.80;;;6.70;99.90;;;;;;5022193;28;20045;-65
2022/12/23 03:20:47;;;;;;;110.95;33.28;;;6.70;99.90;;;;;;5040587;28;20481;-65
2022/12/23 03:23:24;;;;;;;108.20;34.03;;;6.70;99.90;;;;;;5019726;28;20049;-65
2022/12/23 03:26:19;;;;;;;93.55;31.63;;;6.70;99.90;;;;;;5021116;28;20053;-65
2022/12/23 03:28:52;;;;;;;108.90;33.67;;;6.60;99.90;;;;;;5000318;28;20102;-65
2022/12/23 03:31:23;;;;;;;104.75;34.80;;;6.70;99.90;;;;;;5012525;28;20503;-65
2022/12/23 03:33:56;;;;;;;102.50;32.65;;;6.70;99.90;;;;;;5018286;28;20056;-65
2022/12/23 03:36:26;;;;;;;110.93;33.28;;;6.60;99.90;;;;;;5015269;28;20064;-65
2022/12/23 03:38:54;;;;;;;84.93;30.75;;;6.70;99.90;;;;;;5015631;28;20037;-65
2022/12/23 03:41:46;;;;;;;94.82;31.70;;;6.60;99.90;;;;;;5019508;28;20052;-65
2022/12/23 03:44:17;;;;;;;92.15;32.10;;;6.70;99.90;;;;;;5011108;28;21331;-65
2022/12/23 03:46:49;;;;;;;113.90;32.42;;;6.60;99.90;;;;;;5016271;28;20127;-65
2022/12/23 03:49:25;;;;;;;94.95;31.85;;;6.60;99.90;;;;;;5018910;28;20498;-65
2022/12/23 03:51:58;;;;;;;121.72;32.80;;;6.60;99.90;;;;;;5035069;28;20045;-65
2022/12/23 03:54:35;;;;;;;97.70;32.42;;;6.60;99.90;;;;;;5032629;28;20075;-65
2022/12/23 03:57:04;;;;;;;95.47;31.40;;;6.60;99.90;;;;;;4999333;28;20075;-65
2022/12/23 03:59:37;;;;;;;104.50;32.65;;;6.60;99.90;;;;;;5017617;28;20095;-65
2022/12/23 04:02:17;;;;;;;93.95;32.10;;;6.60;99.90;;;;;;5012340;28;20044;-65
2022/12/23 04:05:24;;;;;;;106.43;33.53;;;6.60;99.90;;;;;;5002372;28;20453;-65
2022/12/23 04:08:03;;;;;;;88.38;30.85;;;6.60;99.90;;;;;;5013828;28;20092;-65
2022/12/23 04:10:30;;;;;;;85.05;30.55;;;6.60;99.90;;;;;;5027360;28;20136;-65
2022/12/23 04:12:56;;;;;;;86.82;31.77;;;6.60;99.90;;;;;;5012227;28;20844;-65
2022/12/23 04:15:23;;;;;;;86.50;32.60;;;6.50;99.90;;;;;;4999637;28;20041;-65
2022/12/23 04:17:51;;;;;;;89.20;31.98;;;6.60;99.90;;;;;;5020610;28;20134;-65
2022/12/23 04:20:17;;;;;;;127.68;37.13;;;6.60;99.90;;;;;;5036586;28;20128;-65
2022/12/23 04:22:43;;;;;;;225.23;40.47;;;6.50;99.90;;;;;;5014958;28;20175;-65
2022/12/23 04:25:13;;;;;;;107.13;35.00;;;6.50;99.90;;;;;;5030389;28;20053;-65
2022/12/23 04:27:40;;;;;;;120.25;36.45;;;6.50;99.90;;;;;;5018307;28;20052;-65
2022/12/23 04:30:07;;;;;;;86.78;32.58;;;6.50;99.90;;;;;;5015499;28;20522;-65
2022/12/23 04:32:33;;;;;;;113.93;36.67;;;6.50;99.90;;;;;;5017886;28;20045;-65
2022/12/23 04:34:59;;;;;;;95.63;34.33;;;6.50;99.90;;;;;;4996993;28;20103;-65
2022/12/23 04:37:25;;;;;;;88.40;32.58;;;6.50;99.90;;;;;;5007748;28;20037;-65
2022/12/23 04:39:50;;;;;;;113.85;34.97;;;6.50;99.90;;;;;;5032240;28;20163;-65
2022/12/23 04:42:16;;;;;;;98.38;34.65;;;6.50;99.90;;;;;;5032207;28;20045;-65
2022/12/23 04:44:42;;;;;;;108.40;35.53;;;6.60;99.90;;;;;;5003333;28;20882;-65
2022/12/23 04:47:08;;;;;;;92.88;32.85;;;6.50;99.90;;;;;;5017055;28;20049;-65
2022/12/23 04:49:33;;;;;;;91.05;31.88;;;6.50;99.90;;;;;;4995288;28;20053;-65
2022/12/23 04:51:59;;;;;;;88.07;32.38;;;6.50;99.90;;;;;;5015062;28;20056;-65
2022/12/23 04:54:25;;;;;;;86.72;31.35;;;6.40;99.90;;;;;;5014634;28;20068;-65
2022/12/23 04:56:51;;;;;;;88.25;32.65;;;6.50;99.90;;;;;;5011954;28;21638;-65
2022/12/23 04:59:17;;;;;;;84.63;30.63;;;6.50;99.90;;;;;;4992991;28;20119;-65
2022/12/23 05:01:43;;;;;;;78.93;30.42;;;6.50;99.90;;;;;;5017571;28;20131;-65
2022/12/23 05:04:09;;;;;;;86.45;31.67;;;6.50;99.90;;;;;;4983609;28;20045;-65
2022/12/23 05:06:36;;;;;;;78.95;29.48;;;6.40;99.90;;;;;;5017919;28;20044;-65
2022/12/23 05:09:03;;;;;;;95.10;30.80;;;6.40;99.90;;;;;;5033316;28;20098;-65
2022/12/23 05:11:29;;;;;;;82.72;29.80;;;6.40;99.90;;;;;;5016057;28;20514;-65
2022/12/23 05:13:55;;;;;;;76.78;29.48;;;6.40;99.90;;;;;;5008940;28;20055;-65
2022/12/23 05:16:21;;;;;;;73.65;28.38;;;6.40;99.90;;;;;;5010482;28;20041;-65
2022/12/23 05:18:47;;;;;;;64.03;26.70;;;6.40;99.90;;;;;;5016957;28;20116;-65
2022/12/23 05:21:13;;;;;;;88.07;30.20;;;6.30;99.90;;;;;;5018729;28;20572;-65
2022/12/23 05:23:39;;;;;;;63.92;26.58;;;6.30;99.90;;;;;;5021779;28;20139;-65
2022/12/23 05:26:04;;;;;;;74.38;28.83;;;6.30;99.90;;;;;;5031253;28;20135;-65
2022/12/23 05:28:30;;;;;;;81.18;29.05;;;6.30;99.90;;;;;;5018690;28;20420;-65
2022/12/23 05:31:01;;;;;;;65.20;26.85;;;6.30;99.90;;;;;;5035950;28;20391;-65
2022/12/23 05:33:27;;;;;;;68.57;27.67;;;6.30;99.90;;;;;;5018463;28;20064;-65
2022/12/23 05:35:53;;;;;;;76.18;27.90;;;6.30;99.90;;;;;;5011702;28;20499;-65
2022/12/23 05:38:19;;;;;;;74.10;28.77;;;6.30;99.90;;;;;;5007325;28;20075;-65
2022/12/23 05:40:46;;;;;;;70.80;27.13;;;6.30;99.90;;;;;;5008726;28;20049;-65
2022/12/23 05:43:11;;;;;;;105.32;31.20;;;6.20;99.90;;;;;;5015535;28;20094;-65
2022/12/23 05:45:38;;;;;;;103.03;32.55;;;6.20;99.90;;;;;;5020167;28;20049;-65
2022/12/23 05:48:04;;;;;;;76.03;29.40;;;6.20;99.90;;;;;;5010646;28;20128;-65
2022/12/23 05:50:29;;;;;;;151.65;30.83;;;6.20;99.90;;;;;;5009793;28;20047;-65
2022/12/23 05:52:56;;;;;;;116.97;33.22;;;6.20;99.90;;;;;;4997804;28;20079;-65
2022/12/23 05:55:23;;;;;;;188.55;32.15;;;6.20;99.90;;;;;;4990573;28;20524;-65
2022/12/23 05:57:50;;;;;;;106.90;27.00;;;6.10;99.90;;;;;;5007172;28;20041;-65
2022/12/23 06:00:16;;;;;;;136.10;29.42;;;6.10;99.90;;;;;;4996091;28;20118;-65
2022/12/23 06:02:43;;;;;;;69.85;26.42;;;6.10;99.90;;;;;;5000422;28;20045;-65
2022/12/23 06:05:09;;;;;;;67.90;26.20;;;6.10;99.90;;;;;;4994875;28;20049;-65
2022/12/23 06:07:36;;;;;;;87.57;27.98;;;6.10;99.90;;;;;;5030716;28;20086;-65
2022/12/23 06:10:04;;;;;;;80.72;28.17;;;6.10;99.90;;;;;;5006463;28;20064;-65
2022/12/23 06:12:30;;;;;;;94.03;27.58;;;6.10;99.90;;;;;;5007850;28;20529;-65
2022/12/23 06:14:56;;;;;;;94.72;27.73;;;6.10;99.90;;;;;;5005265;28;20120;-65
2022/12/23 06:17:22;;;;;;;62.22;24.52;;;6.10;99.90;;;;;;5010166;28;20049;-65
2022/12/23 06:19:48;;;;;;;58.00;24.80;;;6.10;99.90;;;;;;5010626;28;20041;-65
2022/12/23 06:22:14;;;;;;;70.82;25.77;;;6.10;99.90;;;;;;5004417;28;20155;-65
2022/12/23 06:24:40;;;;;;;61.05;24.33;;;6.10;99.90;;;;;;4993113;28;20064;-65
2022/12/23 06:27:06;;;;;;;65.47;26.00;;;6.00;99.90;;;;;;5033595;28;20606;-65
2022/12/23 06:29:32;;;;;;;105.05;27.27;;;6.00;99.90;;;;;;5008031;28;20128;-65
2022/12/23 06:31:58;;;;;;;208.48;26.90;;;6.00;99.90;;;;;;5000806;28;27146;-65
2022/12/23 06:34:24;;;;;;;92.47;25.98;;;6.00;99.90;;;;;;5014803;28;20092;-65
2022/12/23 06:36:49;;;;;;;79.35;25.08;;;6.00;99.90;;;;;;4990862;28;20056;-65
2022/12/23 06:39:15;;;;;;;188.85;26.55;;;6.00;99.90;;;;;;4991070;28;20040;-65
2022/12/23 06:41:41;;;;;;;262.52;28.60;;;6.00;99.90;;;;;;4985791;28;20163;-65
2022/12/23 06:44:08;;;;;;;194.52;27.17;;;6.00;99.90;;;;;;5015454;28;20057;-65
2022/12/23 06:46:34;;;;;;;197.32;28.75;;;6.00;99.90;;;;;;5015088;28;20045;-65
2022/12/23 06:48:59;;;;;;;89.07;25.50;;;6.00;99.90;;;;;;5013941;28;20487;-65
2022/12/23 06:51:25;;;;;;;89.80;27.50;;;6.00;99.90;;;;;;5002345;28;20108;-65
2022/12/23 06:53:51;;;;;;;74.57;26.25;;;6.00;99.90;;;;;;5015282;28;20098;-65
2022/12/23 06:56:17;;;;;;;77.32;24.58;;;6.00;99.90;;;;;;5014367;28;20054;-65
2022/12/23 06:58:43;;;;;;;64.57;24.23;;;6.00;99.90;;;;;;5008515;28;20033;-65
2022/12/23 07:01:09;;;;;;;69.07;24.95;;;6.00;99.90;;;;;;5013027;28;20049;-65
2022/12/23 07:03:35;;;;;;;74.45;26.17;;;6.00;99.90;;;;;;5030547;28;20044;-65
2022/12/23 07:06:01;;;;;;;88.80;28.40;;;6.00;99.90;;;;;;5033789;28;20044;-65
2022/12/23 07:08:26;;;;;;;88.82;28.25;;;6.00;99.90;;;;;;5009122;28;20048;-65
2022/12/23 07:10:59;;;;;;;93.70;27.55;;;6.00;99.90;;;;;;5019295;28;20099;-65
2022/12/23 07:13:26;;;;;;;96.43;28.30;;;6.00;99.90;;;;;;5020159;28;20045;-65
2022/12/23 07:15:51;;;;;;;144.00;33.08;;;6.10;99.90;;;;;;5020447;28;20048;-65
2022/12/23 07:18:17;;;;;;;94.95;28.00;;;6.10;99.90;;;;;;5021249;28;20045;-65
2022/12/23 07:20:43;;;;;;;81.65;27.10;;;6.10;99.90;;;;;;5023160;28;20052;-65
2022/12/23 07:23:09;;;;;;;89.97;28.88;;;6.10;99.90;;;;;;5018242;28;20610;-65
2022/12/23 07:25:35;;;;;;;117.72;30.95;;;6.10;99.90;;;;;;5006710;28;20057;-65
2022/12/23 07:28:00;;;;;;;98.30;28.98;;;6.10;99.90;;;;;;5011669;28;20141;-63
2022/12/23 07:30:27;;;;;;;93.68;28.13;;;6.10;99.90;;;;;;5028754;28;20041;-65
2022/12/23 07:32:53;;;;;;;82.78;27.73;;;6.10;99.90;;;;;;5018828;28;20050;-65
2022/12/23 07:35:19;;;;;;;142.75;32.03;;;6.10;99.90;;;;;;5010517;28;20063;-65
2022/12/23 07:37:49;;;;;;;90.03;29.08;;;6.10;99.90;;;;;;5018672;28;20118;-64
2022/12/23 07:40:15;;;;;;;90.85;28.40;;;6.10;99.90;;;;;;5019823;28;20155;-65
2022/12/23 07:42:41;;;;;;;89.95;28.58;;;6.10;99.90;;;;;;5019551;28;20140;-65
2022/12/23 07:45:07;;;;;;;79.15;25.08;;;6.10;99.90;;;;;;5037269;28;20096;-65
2022/12/23 07:47:32;;;;;;;92.03;28.13;;;6.10;99.90;;;;;;5021189;28;20080;-65
2022/12/23 07:49:58;;;;;;;74.22;26.10;;;6.10;99.90;;;;;;5018425;28;20049;-65
2022/12/23 07:52:24;;;;;;;78.35;27.55;;;6.10;99.90;;;;;;4993922;28;20072;-65
2022/12/23 07:54:50;;;;;;;75.53;25.23;;;6.10;99.90;;;;;;5016907;28;20041;-65
2022/12/23 07:57:15;;;;;;;70.32;25.70;;;6.20;99.90;;;;;;5014909;28;20046;-65
2022/12/23 07:59:41;;;;;;;67.10;25.55;;;6.10;99.90;;;;;;5018248;28;20045;-65
2022/12/23 08:02:09;;;;;;;76.30;26.40;;;6.10;99.90;;;;;;5017624;28;20147;-65
2022/12/23 08:04:35;;;;;;;65.63;24.65;;;6.20;99.90;;;;;;5017978;28;20049;-65
2022/12/23 08:07:01;;;;;;;80.95;26.75;;;6.10;99.90;;;;;;5002033;28;20134;-65
2022/12/23 08:09:26;;;;;;;70.82;24.45;;;6.10;99.90;;;;;;5019793;28;20072;-65
2022/12/23 08:11:52;;;;;;;60.72;23.27;;;6.20;99.90;;;;;;5020612;28;20088;-65
2022/12/23 08:14:18;;;;;;;68.10;24.63;;;6.10;99.90;;;;;;5020720;28;20046;-65
2022/12/23 08:16:44;;;;;;;71.60;25.15;;;6.20;99.90;;;;;;5018096;28;20056;-65
2022/12/23 08:19:09;;;;;;;65.30;24.88;;;6.10;99.90;;;;;;5016881;28;20103;-65
2022/12/23 08:21:35;;;;;;;76.70;25.20;;;6.10;99.90;;;;;;4999286;28;20057;-65
2022/12/23 08:24:01;;;;;;;66.93;24.50;;;6.20;99.90;;;;;;5002543;28;20164;-65
2022/12/23 08:26:27;;;;;;;58.75;21.80;;;6.10;99.90;;;;;;4998977;28;20073;-65
2022/12/23 08:28:53;;;;;;;56.17;22.45;;;6.20;99.90;;;;;;4979884;28;20763;-65
2022/12/23 08:31:21;;;;;;;53.85;22.08;;;6.10;99.90;;;;;;5015944;28;20139;-65
2022/12/23 08:33:50;;;;;;;60.30;21.77;;;6.10;99.90;;;;;;5018742;28;20415;-65
2022/12/23 08:36:19;;;;;;;61.72;23.63;;;6.10;99.90;;;;;;5013872;28;20433;-65
2022/12/23 08:38:45;;;;;;;55.58;22.80;;;6.20;99.90;;;;;;5010406;28;20049;-65
2022/12/23 08:41:14;;;;;;;51.50;20.73;;;6.10;99.90;;;;;;5012184;28;20061;-66
2022/12/23 08:43:40;;;;;;;52.13;20.95;;;6.10;99.90;;;;;;5007860;28;20080;-65
2022/12/23 08:46:06;;;;;;;53.83;21.17;;;6.10;99.90;;;;;;5005967;28;20044;-65
2022/12/23 08:48:33;;;;;;;53.28;21.00;;;6.10;99.90;;;;;;5012916;28;20491;-65
2022/12/23 08:51:05;;;;;;;52.55;20.25;;;6.10;99.90;;;;;;5015317;28;20538;-65
2022/12/23 08:53:32;;;;;;;46.90;18.77;;;6.10;99.90;;;;;;5016676;28;20132;-65
2022/12/23 08:56:02;;;;;;;56.20;20.40;;;6.10;99.90;;;;;;4995733;28;20041;-65
2022/12/23 08:58:28;;;;;;;59.47;21.23;;;6.00;99.90;;;;;;5013042;28;20037;-66
2022/12/23 09:00:54;;;;;;;51.45;18.92;;;6.10;99.90;;;;;;4995333;28;20092;-66
2022/12/23 09:03:20;;;;;;;48.28;18.55;;;6.10;99.90;;;;;;4992627;28;20065;-66
2022/12/23 09:05:46;;;;;;;49.40;19.60;;;6.10;99.90;;;;;;5015399;28;20504;-66
2022/12/23 09:08:12;;;;;;;48.67;19.38;;;6.00;99.90;;;;;;5018350;28;20064;-65
2022/12/23 09:10:42;;;;;;;54.22;19.90;;;6.10;99.90;;;;;;5009910;28;20061;-64
2022/12/23 09:13:10;;;;;;;52.08;19.65;;;6.10;99.90;;;;;;5017557;28;20119;-64
2022/12/23 09:15:43;;;;;;;48.90;19.05;;;6.10;99.90;;;;;;5001965;28;20048;-64
2022/12/23 09:18:10;;;;;;;52.08;19.20;;;6.20;99.90;;;;;;5018417;28;20464;-64
2022/12/23 09:20:37;;;;;;;48.50;19.27;;;6.20;99.90;;;;;;5012541;28;20505;-64
2022/12/23 09:23:04;;;;;;;46.67;17.95;;;6.20;99.90;;;;;;5015154;28;20080;-64
2022/12/23 09:25:30;;;;;;;44.38;17.98;;;6.20;99.90;;;;;;5017561;28;20045;-64
2022/12/23 09:27:56;;;;;;;44.03;18.85;;;6.20;99.90;;;;;;5011048;28;20079;-64
2022/12/23 09:30:22;;;;;;;40.85;17.13;;;6.30;99.90;;;;;;5003592;28;20140;-64
2022/12/23 09:32:48;;;;;;;54.47;20.30;;;6.30;99.90;;;;;;5011244;28;20045;-64
2022/12/23 09:35:13;;;;;;;54.28;20.55;;;6.30;99.90;;;;;;5018464;28;20038;-64
2022/12/23 09:37:39;;;;;;;55.50;21.58;;;6.30;99.90;;;;;;5016442;28;20052;-64
2022/12/23 09:40:06;;;;;;;66.78;21.83;;;6.30;99.90;;;;;;5007403;28;20048;-64
2022/12/23 09:42:38;;;;;;;60.03;21.52;;;6.30;99.90;;;;;;5017702;28;20113;-64
2022/12/23 09:45:21;;;;;;;61.03;21.73;;;6.40;99.90;;;;;;5003072;28;20171;-64
2022/12/23 09:47:48;;;;;;;53.15;20.90;;;6.40;99.90;;;;;;5013164;28;20472;-64
2022/12/23 09:50:19;;;;;;;67.82;22.58;;;6.40;99.90;;;;;;5009062;28;20063;-64
2022/12/23 09:53:05;;;;;;;58.88;21.73;;;6.50;99.90;;;;;;5029511;28;20148;-64
2022/12/23 09:55:50;;;;;;;55.17;21.27;;;6.50;99.90;;;;;;5006074;28;20068;-64
2022/12/23 09:58:30;;;;;;;61.53;22.55;;;6.50;99.90;;;;;;4996590;28;20122;-64
2022/12/23 10:01:02;;;;;;;51.90;20.77;;;6.60;99.90;;;;;;4969664;28;20112;-64
2022/12/23 10:03:53;;;;;;;57.47;22.13;;;6.60;99.90;;;;;;5013176;28;20202;-64
2022/12/23 10:06:24;;;;;;;50.38;20.35;;;6.70;99.90;;;;;;4996167;28;20049;-64
2022/12/23 10:08:54;;;;;;;56.38;21.58;;;6.70;99.90;;;;;;5015366;28;20049;-64
2022/12/23 10:11:23;;;;;;;52.90;20.85;;;6.80;99.90;;;;;;5018779;28;20691;-64
2022/12/23 10:14:00;;;;;;;59.10;22.85;;;6.80;99.90;;;;;;5034173;28;20491;-64
2022/12/23 10:16:34;;;;;;;64.85;22.55;;;6.80;99.90;;;;;;5016114;28;20114;-64
2022/12/23 10:19:12;;;;;;;59.58;22.60;;;6.80;99.90;;;;;;5011368;28;20203;-64
2022/12/23 10:21:46;;;;;;;48.38;20.27;;;6.80;99.90;;;;;;5016150;28;20055;-64
2022/12/23 10:24:27;;;;;;;43.10;19.42;;;6.80;99.90;;;;;;5018805;28;20116;-64
2022/12/23 10:26:56;;;;;;;50.03;19.77;;;6.80;99.90;;;;;;5032911;28;20057;-64
2022/12/23 10:29:24;;;;;;;54.10;20.70;;;6.80;99.90;;;;;;5019714;28;20041;-64
2022/12/23 10:32:27;;;;;;;51.08;19.08;;;6.80;99.90;;;;;;5038161;28;20063;-64
2022/12/23 10:35:09;;;;;;;56.45;20.63;;;6.90;99.90;;;;;;5018310;28;20517;-64
2022/12/23 10:38:06;;;;;;;41.37;17.77;;;6.90;99.90;;;;;;5026600;28;20092;-64
2022/12/23 10:41:10;;;;;;;45.55;17.90;;;6.90;99.90;;;;;;5028366;28;20052;-64
2022/12/23 10:44:10;;;;;;;41.58;17.85;;;6.90;99.90;;;;;;5020664;28;20045;-64
2022/12/23 10:46:52;;;;;;;37.13;17.23;;;6.90;99.90;;;;;;5012355;28;20040;-64
2022/12/23 10:49:55;;;;;;;46.50;17.83;;;6.90;99.90;;;;;;5012811;28;20053;-64
2022/12/23 10:52:26;;;;;;;36.55;16.80;;;6.90;99.90;;;;;;5017035;28;20084;-64
2022/12/23 10:54:51;;;;;;;37.85;16.85;;;7.00;99.90;;;;;;5012746;28;20079;-64
2022/12/23 10:57:19;;;;;;;30.80;15.63;;;7.00;99.90;;;;;;5004533;28;20045;-64
2022/12/23 10:59:45;;;;;;;33.65;16.30;;;7.00;99.90;;;;;;5015311;28;20633;-64
2022/12/23 11:02:11;;;;;;;37.22;17.55;;;7.00;99.90;;;;;;5014756;28;20044;-64
2022/12/23 11:04:46;;;;;;;38.08;17.88;;;7.00;99.90;;;;;;5022196;28;20044;-64
2022/12/23 11:07:24;;;;;;;37.13;17.27;;;7.00;99.90;;;;;;5025097;28;20045;-64
2022/12/23 11:10:00;;;;;;;43.38;18.27;;;7.00;99.90;;;;;;5008624;28;20977;-64
2022/12/23 11:12:50;;;;;;;42.97;18.30;;;7.00;99.90;;;;;;5032934;28;20056;-64
2022/12/23 11:15:34;;;;;;;41.60;17.15;;;7.00;99.90;;;;;;5027575;28;20621;-64
2022/12/23 11:18:15;;;;;;;40.83;18.67;;;7.00;99.90;;;;;;4991402;28;20086;-64
2022/12/23 11:20:44;;;;;;;43.78;18.25;;;7.00;99.90;;;;;;5019652;28;20415;-64
2022/12/23 11:23:28;;;;;;;42.03;18.15;;;7.10;99.90;;;;;;5015439;28;20867;-64
2022/12/23 11:26:02;;;;;;;34.90;16.83;;;7.10;99.90;;;;;;5026731;28;20049;-64
2022/12/23 11:28:29;;;;;;;34.55;16.92;;;7.10;99.90;;;;;;5013685;28;20124;-64
2022/12/23 11:31:10;;;;;;;34.25;17.13;;;7.10;99.90;;;;;;5016431;28;20045;-64
2022/12/23 11:33:48;;;;;;;36.75;16.45;;;7.10;99.90;;;;;;5009153;28;20110;-64
2022/12/23 11:36:17;;;;;;;30.90;16.75;;;7.10;99.90;;;;;;5013817;28;20044;-64
2022/12/23 11:38:53;;;;;;;36.03;17.05;;;7.20;99.90;;;;;;5015804;28;20110;-64
2022/12/23 11:41:28;;;;;;;34.05;16.25;;;7.20;99.90;;;;;;4998738;28;20135;-64
2022/12/23 11:44:08;;;;;;;37.83;17.13;;;7.20;99.90;;;;;;5016043;28;20067;-64
2022/12/23 11:46:35;;;;;;;38.65;16.58;;;7.20;99.90;;;;;;5029458;28;20750;-65
2022/12/23 11:49:21;;;;;;;33.42;16.55;;;7.20;99.90;;;;;;5000673;28;20843;-64
2022/12/23 11:52:04;;;;;;;35.88;16.30;;;7.30;99.90;;;;;;5013781;28;20049;-64
2022/12/23 11:54:31;;;;;;;29.48;15.70;;;7.30;99.90;;;;;;5018377;28;20136;-64
2022/12/23 11:57:00;;;;;;;33.08;15.98;;;7.30;99.90;;;;;;5008404;28;20053;-64
2022/12/23 11:59:41;;;;;;;31.30;15.98;;;7.30;99.90;;;;;;5017819;28;20403;-64
2022/12/23 12:02:46;;;;;;;33.97;16.52;;;7.30;99.90;;;;;;5010842;28;20179;-65
2022/12/23 12:05:32;;;;;;;33.88;16.88;;;7.30;99.90;;;;;;4998007;28;20548;-65
2022/12/23 12:08:02;;;;;;;32.85;17.15;;;7.30;99.90;;;;;;5002081;28;20041;-64
2022/12/23 12:10:31;;;;;;;35.90;17.70;;;7.40;99.90;;;;;;4993928;28;20587;-64
2022/12/23 12:13:01;;;;;;;34.83;17.75;;;7.40;99.90;;;;;;5017371;28;20044;-64
2022/12/23 12:15:40;;;;;;;34.13;17.55;;;7.40;99.90;;;;;;5018270;28;20040;-64
2022/12/23 12:18:08;;;;;;;39.35;18.20;;;7.40;99.90;;;;;;5021965;28;20428;-64
2022/12/23 12:20:52;;;;;;;33.78;17.27;;;7.40;99.90;;;;;;5021728;28;20059;-64
2022/12/23 12:23:31;;;;;;;37.88;17.45;;;7.40;99.90;;;;;;5032442;28;20757;-65
2022/12/23 12:26:05;;;;;;;35.30;15.60;;;7.40;99.90;;;;;;5018297;28;20064;-64
2022/12/23 12:28:37;;;;;;;31.98;15.88;;;7.40;99.90;;;;;;5018099;28;21084;-64
2022/12/23 12:31:35;;;;;;;34.20;16.05;;;7.40;99.90;;;;;;5010252;28;20055;-64
2022/12/23 12:34:04;;;;;;;34.28;15.63;;;7.40;99.90;;;;;;5020746;28;20049;-65
2022/12/23 12:36:44;;;;;;;32.22;14.30;;;7.40;99.90;;;;;;4995736;28;20780;-65
2022/12/23 12:39:36;;;;;;;28.98;14.20;;;7.40;99.90;;;;;;5000061;28;20095;-64
2022/12/23 12:42:16;;;;;;;26.95;13.85;;;7.40;99.90;;;;;;5013765;28;20068;-65
2022/12/23 12:45:21;;;;;;;27.98;13.63;;;7.40;99.90;;;;;;5002057;28;20064;-64
2022/12/23 12:47:55;;;;;;;29.60;13.73;;;7.30;99.90;;;;;;5017468;28;20049;-65
2022/12/23 12:50:30;;;;;;;28.33;15.07;;;7.30;99.90;;;;;;5019591;28;20052;-64
2022/12/23 12:53:00;;;;;;;26.98;14.73;;;7.30;99.90;;;;;;5013638;28;20048;-64
2022/12/23 12:55:35;;;;;;;26.20;13.75;;;7.30;99.90;;;;;;5010345;28;20495;-64
2022/12/23 12:58:04;;;;;;;32.42;14.63;;;7.30;99.90;;;;;;5015403;28;20072;-65
2022/12/23 13:00:45;;;;;;;26.13;13.18;;;7.30;99.90;;;;;;5018527;28;20507;-64
2022/12/23 13:03:24;;;;;;;26.83;14.73;;;7.30;99.90;;;;;;5018011;28;20045;-65
2022/12/23 13:06:12;;;;;;;32.85;15.00;;;7.30;99.90;;;;;;5020868;28;20084;-65
2022/12/23 13:08:44;;;;;;;25.70;13.35;;;7.30;99.90;;;;;;5016005;28;20060;-65
2022/12/23 13:11:36;;;;;;;27.50;13.50;;;7.30;99.90;;;;;;5016580;28;20049;-65
2022/12/23 13:14:39;;;;;;;25.15;13.85;;;7.30;99.90;;;;;;5033620;28;20410;-65
2022/12/23 13:17:41;;;;;;;29.88;14.60;;;7.30;99.90;;;;;;5002654;28;20037;-65
2022/12/23 13:20:21;;;;;;;28.17;14.55;;;7.30;99.90;;;;;;5024308;28;20037;-64
2022/12/23 13:22:53;;;;;;;35.55;15.57;;;7.30;99.90;;;;;;5019714;28;20041;-64
2022/12/23 13:25:25;;;;;;;34.45;15.82;;;7.30;99.90;;;;;;5035602;28;20049;-65
2022/12/23 13:28:20;;;;;;;31.00;16.73;;;7.30;99.90;;;;;;5021374;28;20604;-65
2022/12/23 13:30:55;;;;;;;37.80;16.45;;;7.30;99.90;;;;;;5008891;28;20127;-65